sensor_id;sensor_type;location;lat;lon;timestamp;pressure;altitude;pressure_sealevel;temperature;humidity
77725;BME280;66892;53.236;6.550;2023-03-29T00:01:26;101764.06;;;4.81;87.11
77725;BME280;66892;53.236;6.550;2023-03-29T00:03:55;101759.59;;;4.78;86.75
77725;BME280;66892;53.236;6.550;2023-03-29T00:06:22;101750.88;;;4.78;86.74
77725;BME280;66892;53.236;6.550;2023-03-29T00:08:48;101749.97;;;4.77;87.08
77725;BME280;66892;53.236;6.550;2023-03-29T00:11:20;101750.69;;;4.73;86.09
77725;BME280;66892;53.236;6.550;2023-03-29T00:13:48;101744.66;;;4.76;86.90
77725;BME280;66892;53.236;6.550;2023-03-29T00:16:15;101746.38;;;4.75;86.34
77725;BME280;66892;53.236;6.550;2023-03-29T00:18:42;101742.84;;;4.73;86.36
77725;BME280;66892;53.236;6.550;2023-03-29T00:21:08;101744.78;;;4.79;85.82
77725;BME280;66892;53.236;6.550;2023-03-29T00:23:34;101738.59;;;4.77;86.50
77725;BME280;66892;53.236;6.550;2023-03-29T00:26:00;101739.63;;;4.82;85.65
77725;BME280;66892;53.236;6.550;2023-03-29T00:28:27;101740.59;;;4.84;84.69
77725;BME280;66892;53.236;6.550;2023-03-29T00:31:02;101744.84;;;4.81;86.08
77725;BME280;66892;53.236;6.550;2023-03-29T00:33:29;101734.38;;;4.82;85.35
77725;BME280;66892;53.236;6.550;2023-03-29T00:35:55;101738.88;;;4.85;85.37
77725;BME280;66892;53.236;6.550;2023-03-29T00:38:21;101724.00;;;4.85;84.52
77725;BME280;66892;53.236;6.550;2023-03-29T00:40:47;101730.94;;;4.83;85.58
77725;BME280;66892;53.236;6.550;2023-03-29T00:43:14;101712.69;;;4.86;83.81
77725;BME280;66892;53.236;6.550;2023-03-29T00:45:41;101706.63;;;4.87;84.37
77725;BME280;66892;53.236;6.550;2023-03-29T00:48:10;101703.91;;;4.84;85.13
77725;BME280;66892;53.236;6.550;2023-03-29T00:50:40;101695.88;;;4.79;84.88
77725;BME280;66892;53.236;6.550;2023-03-29T00:53:09;101696.84;;;4.82;84.57
77725;BME280;66892;53.236;6.550;2023-03-29T00:55:40;101690.59;;;4.78;85.44
77725;BME280;66892;53.236;6.550;2023-03-29T00:58:11;101685.47;;;4.81;84.83
77725;BME280;66892;53.236;6.550;2023-03-29T01:00:42;101689.84;;;4.82;84.66
77725;BME280;66892;53.236;6.550;2023-03-29T01:03:13;101687.22;;;4.82;84.87
77725;BME280;66892;53.236;6.550;2023-03-29T01:05:41;101683.88;;;4.86;83.64
77725;BME280;66892;53.236;6.550;2023-03-29T01:08:10;101677.94;;;4.92;82.93
77725;BME280;66892;53.236;6.550;2023-03-29T01:10:39;101674.28;;;4.87;84.39
77725;BME280;66892;53.236;6.550;2023-03-29T01:13:08;101677.59;;;4.81;85.48
77725;BME280;66892;53.236;6.550;2023-03-29T01:15:37;101677.81;;;4.87;84.39
77725;BME280;66892;53.236;6.550;2023-03-29T01:18:13;101678.72;;;4.89;84.42
77725;BME280;66892;53.236;6.550;2023-03-29T01:20:49;101670.88;;;4.89;84.20
77725;BME280;66892;53.236;6.550;2023-03-29T01:23:34;101663.91;;;4.90;83.92
77725;BME280;66892;53.236;6.550;2023-03-29T01:26:12;101672.66;;;4.90;83.46
77725;BME280;66892;53.236;6.550;2023-03-29T01:28:45;101664.81;;;4.90;84.48
77725;BME280;66892;53.236;6.550;2023-03-29T01:31:18;101660.56;;;4.94;84.17
77725;BME280;66892;53.236;6.550;2023-03-29T01:33:48;101658.03;;;4.97;83.40
77725;BME280;66892;53.236;6.550;2023-03-29T01:36:21;101658.72;;;4.91;84.00
77725;BME280;66892;53.236;6.550;2023-03-29T01:38:54;101660.38;;;4.89;84.14
77725;BME280;66892;53.236;6.550;2023-03-29T01:41:24;101656.97;;;4.92;84.68
77725;BME280;66892;53.236;6.550;2023-03-29T01:43:58;101654.31;;;4.90;83.54
77725;BME280;66892;53.236;6.550;2023-03-29T01:46:31;101650.97;;;4.94;83.83
77725;BME280;66892;53.236;6.550;2023-03-29T01:49:03;101647.38;;;4.92;84.25
77725;BME280;66892;53.236;6.550;2023-03-29T01:51:37;101642.94;;;4.90;84.13
77725;BME280;66892;53.236;6.550;2023-03-29T01:54:06;101644.66;;;4.89;84.49
77725;BME280;66892;53.236;6.550;2023-03-29T01:56:39;101635.00;;;4.88;84.93
77725;BME280;66892;53.236;6.550;2023-03-29T01:59:11;101628.03;;;4.89;84.11
77725;BME280;66892;53.236;6.550;2023-03-29T02:01:41;101620.28;;;4.92;83.86
77725;BME280;66892;53.236;6.550;2023-03-29T02:04:17;101622.97;;;4.93;84.73
77725;BME280;66892;53.236;6.550;2023-03-29T02:06:46;101616.84;;;4.93;84.61
77725;BME280;66892;53.236;6.550;2023-03-29T02:09:15;101616.84;;;4.93;84.59
77725;BME280;66892;53.236;6.550;2023-03-29T02:11:43;101608.81;;;4.88;84.22
77725;BME280;66892;53.236;6.550;2023-03-29T02:14:11;101613.19;;;4.88;84.26
77725;BME280;66892;53.236;6.550;2023-03-29T02:16:38;101610.56;;;4.88;84.00
77725;BME280;66892;53.236;6.550;2023-03-29T02:19:06;101609.59;;;4.86;84.72
77725;BME280;66892;53.236;6.550;2023-03-29T02:21:36;101607.09;;;4.89;84.29
77725;BME280;66892;53.236;6.550;2023-03-29T02:24:06;101600.94;;;4.88;84.29
77725;BME280;66892;53.236;6.550;2023-03-29T02:26:34;101601.81;;;4.87;85.45
77725;BME280;66892;53.236;6.550;2023-03-29T02:29:00;101604.47;;;4.89;84.99
77725;BME280;66892;53.236;6.550;2023-03-29T02:31:31;101594.03;;;4.90;85.17
77725;BME280;66892;53.236;6.550;2023-03-29T02:34:03;101588.94;;;4.95;83.99
77725;BME280;66892;53.236;6.550;2023-03-29T02:36:36;101591.63;;;4.96;84.23
77725;BME280;66892;53.236;6.550;2023-03-29T02:39:07;101581.13;;;4.96;84.28
77725;BME280;66892;53.236;6.550;2023-03-29T02:41:36;101585.47;;;4.96;83.95
77725;BME280;66892;53.236;6.550;2023-03-29T02:44:04;101580.22;;;4.96;84.90
77725;BME280;66892;53.236;6.550;2023-03-29T02:46:34;101570.69;;;4.98;84.73
77725;BME280;66892;53.236;6.550;2023-03-29T02:49:00;101567.13;;;4.96;84.58
77725;BME280;66892;53.236;6.550;2023-03-29T02:51:29;101568.91;;;4.97;84.60
77725;BME280;66892;53.236;6.550;2023-03-29T02:53:59;101567.19;;;4.97;83.70
77725;BME280;66892;53.236;6.550;2023-03-29T02:56:27;101563.88;;;5.04;84.39
77725;BME280;66892;53.236;6.550;2023-03-29T02:58:53;101558.63;;;5.03;84.35
77725;BME280;66892;53.236;6.550;2023-03-29T03:01:20;101558.66;;;5.04;84.64
77725;BME280;66892;53.236;6.550;2023-03-29T03:03:49;101550.66;;;5.00;84.47
77725;BME280;66892;53.236;6.550;2023-03-29T03:06:15;101554.28;;;5.03;84.24
77725;BME280;66892;53.236;6.550;2023-03-29T03:08:41;101555.94;;;5.01;84.48
77725;BME280;66892;53.236;6.550;2023-03-29T03:11:07;101548.88;;;4.99;84.37
77725;BME280;66892;53.236;6.550;2023-03-29T03:13:33;101549.03;;;5.03;83.79
77725;BME280;66892;53.236;6.550;2023-03-29T03:15:59;101538.53;;;5.03;84.63
77725;BME280;66892;53.236;6.550;2023-03-29T03:18:26;101538.47;;;5.02;84.47
77725;BME280;66892;53.236;6.550;2023-03-29T03:20:57;101545.63;;;5.07;84.62
77725;BME280;66892;53.236;6.550;2023-03-29T03:23:26;101534.22;;;5.05;84.71
77725;BME280;66892;53.236;6.550;2023-03-29T03:25:53;101533.31;;;5.03;85.03
77725;BME280;66892;53.236;6.550;2023-03-29T03:28:20;101526.25;;;5.01;84.83
77725;BME280;66892;53.236;6.550;2023-03-29T03:30:47;101522.63;;;4.97;84.53
77725;BME280;66892;53.236;6.550;2023-03-29T03:33:13;101526.13;;;4.98;84.70
77725;BME280;66892;53.236;6.550;2023-03-29T03:35:39;101518.31;;;4.99;85.23
77725;BME280;66892;53.236;6.550;2023-03-29T03:38:07;101518.31;;;4.99;84.39
77725;BME280;66892;53.236;6.550;2023-03-29T03:40:33;101521.94;;;5.04;84.40
77725;BME280;66892;53.236;6.550;2023-03-29T03:42:59;101519.41;;;5.06;84.01
77725;BME280;66892;53.236;6.550;2023-03-29T03:45:25;101517.66;;;5.06;85.14
77725;BME280;66892;53.236;6.550;2023-03-29T03:47:52;101516.91;;;5.10;84.54
77725;BME280;66892;53.236;6.550;2023-03-29T03:50:18;101520.31;;;5.08;84.26
77725;BME280;66892;53.236;6.550;2023-03-29T03:52:44;101516.91;;;5.10;84.25
77725;BME280;66892;53.236;6.550;2023-03-29T03:55:11;101522.16;;;5.10;84.45
77725;BME280;66892;53.236;6.550;2023-03-29T03:57:37;101521.22;;;5.08;85.06
77725;BME280;66892;53.236;6.550;2023-03-29T04:00:04;101511.47;;;5.04;84.66
77725;BME280;66892;53.236;6.550;2023-03-29T04:02:45;101509.75;;;5.05;84.05
77725;BME280;66892;53.236;6.550;2023-03-29T04:05:11;101496.03;;;5.13;83.83
77725;BME280;66892;53.236;6.550;2023-03-29T04:07:38;101501.31;;;5.15;84.01
77725;BME280;66892;53.236;6.550;2023-03-29T04:10:04;101506.47;;;5.12;83.59
77725;BME280;66892;53.236;6.550;2023-03-29T04:12:32;101507.28;;;5.11;84.55
77725;BME280;66892;53.236;6.550;2023-03-29T04:14:58;101501.31;;;5.15;83.31
77725;BME280;66892;53.236;6.550;2023-03-29T04:17:24;101492.72;;;5.20;83.76
77725;BME280;66892;53.236;6.550;2023-03-29T04:19:50;101494.50;;;5.21;83.15
77725;BME280;66892;53.236;6.550;2023-03-29T04:22:17;101493.53;;;5.18;84.03
77725;BME280;66892;53.236;6.550;2023-03-29T04:24:43;101486.41;;;5.14;84.55
77725;BME280;66892;53.236;6.550;2023-03-29T04:27:09;101482.16;;;5.17;84.47
77725;BME280;66892;53.236;6.550;2023-03-29T04:29:36;101477.84;;;5.19;84.08
77725;BME280;66892;53.236;6.550;2023-03-29T04:32:03;101487.47;;;5.20;83.91
77725;BME280;66892;53.236;6.550;2023-03-29T04:34:29;101476.13;;;5.20;83.79
77725;BME280;66892;53.236;6.550;2023-03-29T04:36:55;101480.50;;;5.21;84.32
77725;BME280;66892;53.236;6.550;2023-03-29T04:39:23;101472.63;;;5.21;83.89
77725;BME280;66892;53.236;6.550;2023-03-29T04:41:58;101480.47;;;5.19;83.89
77725;BME280;66892;53.236;6.550;2023-03-29T04:44:24;101479.53;;;5.17;84.24
77725;BME280;66892;53.236;6.550;2023-03-29T04:46:52;101483.19;;;5.22;84.17
77725;BME280;66892;53.236;6.550;2023-03-29T04:49:18;101477.88;;;5.21;84.06
77725;BME280;66892;53.236;6.550;2023-03-29T04:51:45;101485.00;;;5.25;84.18
77725;BME280;66892;53.236;6.550;2023-03-29T04:54:11;101475.25;;;5.21;83.98
77725;BME280;66892;53.236;6.550;2023-03-29T04:56:37;101480.50;;;5.21;84.58
77725;BME280;66892;53.236;6.550;2023-03-29T04:59:03;101473.53;;;5.21;84.00
77725;BME280;66892;53.236;6.550;2023-03-29T05:01:29;101478.78;;;5.21;84.07
77725;BME280;66892;53.236;6.550;2023-03-29T05:03:56;101483.28;;;5.25;84.43
77725;BME280;66892;53.236;6.550;2023-03-29T05:06:22;101482.53;;;5.31;84.18
77725;BME280;66892;53.236;6.550;2023-03-29T05:08:48;101472.81;;;5.27;84.34
77725;BME280;66892;53.236;6.550;2023-03-29T05:11:14;101471.00;;;5.24;84.89
77725;BME280;66892;53.236;6.550;2023-03-29T05:13:41;101468.44;;;5.26;84.34
77725;BME280;66892;53.236;6.550;2023-03-29T05:16:07;101465.03;;;5.30;84.93
77725;BME280;66892;53.236;6.550;2023-03-29T05:18:35;101461.47;;;5.28;84.87
77725;BME280;66892;53.236;6.550;2023-03-29T05:21:03;101469.25;;;5.25;84.67
77725;BME280;66892;53.236;6.550;2023-03-29T05:23:29;101459.84;;;5.31;84.58
77725;BME280;66892;53.236;6.550;2023-03-29T05:25:56;101462.41;;;5.30;85.21
77725;BME280;66892;53.236;6.550;2023-03-29T05:28:22;101471.13;;;5.29;85.24
77725;BME280;66892;53.236;6.550;2023-03-29T05:30:58;101474.75;;;5.32;85.08
77725;BME280;66892;53.236;6.550;2023-03-29T05:33:24;101483.47;;;5.33;84.73
77725;BME280;66892;53.236;6.550;2023-03-29T05:35:57;101479.25;;;5.38;84.56
77725;BME280;66892;53.236;6.550;2023-03-29T05:38:25;101474.00;;;5.38;84.42
77725;BME280;66892;53.236;6.550;2023-03-29T05:40:51;101474.00;;;5.38;85.04
77725;BME280;66892;53.236;6.550;2023-03-29T05:43:17;101468.03;;;5.44;84.52
77725;BME280;66892;53.236;6.550;2023-03-29T05:45:43;101464.53;;;5.43;84.35
77725;BME280;66892;53.236;6.550;2023-03-29T05:48:10;101470.66;;;5.44;84.90
77725;BME280;66892;53.236;6.550;2023-03-29T05:50:36;101465.50;;;5.47;84.43
77725;BME280;66892;53.236;6.550;2023-03-29T05:53:02;101477.69;;;5.45;84.88
77725;BME280;66892;53.236;6.550;2023-03-29T05:55:29;101468.00;;;5.42;85.27
77725;BME280;66892;53.236;6.550;2023-03-29T05:57:55;101474.19;;;5.44;85.62
77725;BME280;66892;53.236;6.550;2023-03-29T06:00:21;101472.56;;;5.49;85.10
77725;BME280;66892;53.236;6.550;2023-03-29T06:02:49;101478.78;;;5.53;85.08
77725;BME280;66892;53.236;6.550;2023-03-29T06:05:17;101475.22;;;5.51;85.11
77725;BME280;66892;53.236;6.550;2023-03-29T06:07:44;101477.88;;;5.52;85.37
77725;BME280;66892;53.236;6.550;2023-03-29T06:10:11;101480.56;;;5.54;85.00
77725;BME280;66892;53.236;6.550;2023-03-29T06:12:38;101486.72;;;5.56;85.32
77725;BME280;66892;53.236;6.550;2023-03-29T06:15:05;101478.00;;;5.57;85.90
77725;BME280;66892;53.236;6.550;2023-03-29T06:17:31;101476.28;;;5.57;85.87
77725;BME280;66892;53.236;6.550;2023-03-29T06:19:58;101471.13;;;5.60;86.06
77725;BME280;66892;53.236;6.550;2023-03-29T06:22:27;101473.69;;;5.59;86.62
77725;BME280;66892;53.236;6.550;2023-03-29T06:24:53;101464.31;;;5.67;86.50
77725;BME280;66892;53.236;6.550;2023-03-29T06:27:19;101465.44;;;5.76;85.75
77725;BME280;66892;53.236;6.550;2023-03-29T06:29:47;101467.28;;;5.80;86.62
77725;BME280;66892;53.236;6.550;2023-03-29T06:32:13;101476.91;;;5.80;87.06
77725;BME280;66892;53.236;6.550;2023-03-29T06:34:39;101472.53;;;5.80;87.45
77725;BME280;66892;53.236;6.550;2023-03-29T06:37:05;101467.31;;;5.82;87.96
77725;BME280;66892;53.236;6.550;2023-03-29T06:39:31;101468.25;;;5.84;88.01
77725;BME280;66892;53.236;6.550;2023-03-29T06:41:57;101477.00;;;5.84;88.48
77725;BME280;66892;53.236;6.550;2023-03-29T06:44:24;101474.28;;;5.81;89.22
77725;BME280;66892;53.236;6.550;2023-03-29T06:46:54;101470.00;;;5.85;89.84
77725;BME280;66892;53.236;6.550;2023-03-29T06:49:20;101472.00;;;5.92;88.86
77725;BME280;66892;53.236;6.550;2023-03-29T06:51:46;101466.00;;;5.98;88.99
77725;BME280;66892;53.236;6.550;2023-03-29T06:54:13;101466.94;;;6.00;89.15
77725;BME280;66892;53.236;6.550;2023-03-29T06:56:39;101467.84;;;6.02;89.08
77725;BME280;66892;53.236;6.550;2023-03-29T06:59:05;101468.06;;;6.11;87.70
77725;BME280;66892;53.236;6.550;2023-03-29T07:01:31;101468.41;;;6.24;88.37
77725;BME280;66892;53.236;6.550;2023-03-29T07:04:00;101458.09;;;6.32;87.87
77725;BME280;66892;53.236;6.550;2023-03-29T07:06:29;101464.69;;;6.52;88.11
77725;BME280;66892;53.236;6.550;2023-03-29T07:08:55;101452.78;;;6.68;87.65
77725;BME280;66892;53.236;6.550;2023-03-29T07:11:24;101466.63;;;6.59;86.71
77725;BME280;66892;53.236;6.550;2023-03-29T07:13:50;101466.28;;;6.44;87.77
77725;BME280;66892;53.236;6.550;2023-03-29T07:16:16;101467.69;;;6.67;87.07
77725;BME280;66892;53.236;6.550;2023-03-29T07:18:44;101469.09;;;6.92;86.28
77725;BME280;66892;53.236;6.550;2023-03-29T07:21:11;101471.16;;;7.07;85.98
77725;BME280;66892;53.236;6.550;2023-03-29T07:23:38;101473.72;;;7.04;85.69
77725;BME280;66892;53.236;6.550;2023-03-29T07:26:04;101469.59;;;7.16;84.92
77725;BME280;66892;53.236;6.550;2023-03-29T07:28:32;101462.47;;;7.11;85.55
77725;BME280;66892;53.236;6.550;2023-03-29T07:31:02;101468.75;;;7.16;84.88
77725;BME280;66892;53.236;6.550;2023-03-29T07:33:30;101474.66;;;7.07;84.82
77725;BME280;66892;53.236;6.550;2023-03-29T07:35:56;101479.03;;;7.05;85.17
77725;BME280;66892;53.236;6.550;2023-03-29T07:38:23;101480.53;;;6.94;85.13
77725;BME280;66892;53.236;6.550;2023-03-29T07:40:50;101491.81;;;6.88;85.60
77725;BME280;66892;53.236;6.550;2023-03-29T07:43:16;101489.25;;;6.92;86.09
77725;BME280;66892;53.236;6.550;2023-03-29T07:45:43;101482.38;;;6.98;85.59
77725;BME280;66892;53.236;6.550;2023-03-29T07:48:09;101490.13;;;6.92;85.57
77725;BME280;66892;53.236;6.550;2023-03-29T07:50:35;101490.00;;;6.86;85.38
77725;BME280;66892;53.236;6.550;2023-03-29T07:53:01;101496.16;;;6.88;85.97
77725;BME280;66892;53.236;6.550;2023-03-29T07:55:29;101495.47;;;6.95;85.39
77725;BME280;66892;53.236;6.550;2023-03-29T07:57:55;101489.47;;;7.02;84.91
77725;BME280;66892;53.236;6.550;2023-03-29T08:00:22;101488.88;;;7.15;84.50
77725;BME280;66892;53.236;6.550;2023-03-29T08:02:50;101497.03;;;7.29;84.01
77725;BME280;66892;53.236;6.550;2023-03-29T08:05:18;101488.84;;;7.57;83.65
77725;BME280;66892;53.236;6.550;2023-03-29T08:07:45;101483.97;;;7.77;84.02
77725;BME280;66892;53.236;6.550;2023-03-29T08:10:13;101493.72;;;7.82;83.66
77725;BME280;66892;53.236;6.550;2023-03-29T08:12:42;101474.97;;;7.66;83.60
77725;BME280;66892;53.236;6.550;2023-03-29T08:15:09;101476.88;;;7.74;84.19
77725;BME280;66892;53.236;6.550;2023-03-29T08:17:36;101471.50;;;7.67;84.01
77725;BME280;66892;53.236;6.550;2023-03-29T08:20:03;101478.44;;;7.63;84.52
77725;BME280;66892;53.236;6.550;2023-03-29T08:22:30;101482.97;;;7.72;84.28
77725;BME280;66892;53.236;6.550;2023-03-29T08:24:56;101483.09;;;7.78;83.49
77725;BME280;66892;53.236;6.550;2023-03-29T08:27:23;101479.84;;;7.92;83.41
77725;BME280;66892;53.236;6.550;2023-03-29T08:29:50;101462.81;;;8.23;81.87
77725;BME280;66892;53.236;6.550;2023-03-29T08:32:17;101464.47;;;8.72;79.84
77725;BME280;66892;53.236;6.550;2023-03-29T08:34:43;101459.97;;;8.65;79.61
77725;BME280;66892;53.236;6.550;2023-03-29T08:37:09;101468.59;;;8.54;79.10
77725;BME280;66892;53.236;6.550;2023-03-29T08:39:35;101469.28;;;8.42;80.13
77725;BME280;66892;53.236;6.550;2023-03-29T08:42:18;101469.22;;;8.37;80.67
77725;BME280;66892;53.236;6.550;2023-03-29T08:44:59;101464.94;;;8.45;80.77
77725;BME280;66892;53.236;6.550;2023-03-29T08:47:34;101464.13;;;8.50;81.31
77725;BME280;66892;53.236;6.550;2023-03-29T08:50:03;101451.28;;;8.72;79.35
77725;BME280;66892;53.236;6.550;2023-03-29T08:52:32;101463.84;;;8.93;79.06
77725;BME280;66892;53.236;6.550;2023-03-29T08:55:00;101446.59;;;9.18;77.38
77725;BME280;66892;53.236;6.550;2023-03-29T08:57:29;101442.38;;;9.35;77.92
77725;BME280;66892;53.236;6.550;2023-03-29T09:00:00;101441.47;;;9.30;77.71
77725;BME280;66892;53.236;6.550;2023-03-29T09:02:30;101441.41;;;9.25;77.76
77725;BME280;66892;53.236;6.550;2023-03-29T09:05:01;101445.69;;;9.16;77.00
77725;BME280;66892;53.236;6.550;2023-03-29T09:07:31;101433.50;;;9.28;77.26
77725;BME280;66892;53.236;6.550;2023-03-29T09:09:57;101437.47;;;9.68;75.35
77725;BME280;66892;53.236;6.550;2023-03-29T09:12:32;101437.84;;;10.11;75.02
77725;BME280;66892;53.236;6.550;2023-03-29T09:15:09;101441.13;;;9.84;74.91
77725;BME280;66892;53.236;6.550;2023-03-29T09:17:45;101437.91;;;10.14;74.40
77725;BME280;66892;53.236;6.550;2023-03-29T09:20:21;101438.66;;;10.05;73.23
77725;BME280;66892;53.236;6.550;2023-03-29T09:22:59;101425.66;;;10.23;73.60
77725;BME280;66892;53.236;6.550;2023-03-29T09:25:41;101413.34;;;10.28;74.02
77725;BME280;66892;53.236;6.550;2023-03-29T09:28:13;101408.88;;;10.18;74.40
77725;BME280;66892;53.236;6.550;2023-03-29T09:30:50;101407.78;;;9.95;74.68
77725;BME280;66892;53.236;6.550;2023-03-29T09:33:23;101411.97;;;9.72;75.48
77725;BME280;66892;53.236;6.550;2023-03-29T09:35:52;101408.50;;;9.76;75.34
77725;BME280;66892;53.236;6.550;2023-03-29T09:38:21;101399.38;;;10.50;73.31
77725;BME280;66892;53.236;6.550;2023-03-29T09:40:49;101394.19;;;10.67;73.15
77725;BME280;66892;53.236;6.550;2023-03-29T09:43:18;101382.88;;;11.03;72.91
77725;BME280;66892;53.236;6.550;2023-03-29T09:45:54;101386.41;;;10.97;71.81
77725;BME280;66892;53.236;6.550;2023-03-29T09:48:24;101409.28;;;10.85;71.84
77725;BME280;66892;53.236;6.550;2023-03-29T09:50:52;101416.06;;;10.39;72.96
77725;BME280;66892;53.236;6.550;2023-03-29T09:53:19;101406.38;;;10.39;74.18
77725;BME280;66892;53.236;6.550;2023-03-29T09:55:48;101398.44;;;10.36;74.46
77725;BME280;66892;53.236;6.550;2023-03-29T09:58:16;101401.06;;;10.35;74.41
77725;BME280;66892;53.236;6.550;2023-03-29T10:00:43;101396.66;;;10.35;75.37
77725;BME280;66892;53.236;6.550;2023-03-29T10:03:16;101409.00;;;10.35;75.37
77725;BME280;66892;53.236;6.550;2023-03-29T10:05:44;101419.59;;;10.41;74.64
77725;BME280;66892;53.236;6.550;2023-03-29T10:08:16;101415.16;;;10.32;75.23
77725;BME280;66892;53.236;6.550;2023-03-29T10:10:44;101417.81;;;10.34;74.45
77725;BME280;66892;53.236;6.550;2023-03-29T10:13:12;101417.84;;;10.37;74.84
77725;BME280;66892;53.236;6.550;2023-03-29T10:15:42;101423.94;;;10.31;74.87
77725;BME280;66892;53.236;6.550;2023-03-29T10:18:12;101429.13;;;10.16;75.09
77725;BME280;66892;53.236;6.550;2023-03-29T10:20:39;101423.91;;;10.28;75.16
77725;BME280;66892;53.236;6.550;2023-03-29T10:23:07;101425.63;;;10.20;75.29
77725;BME280;66892;53.236;6.550;2023-03-29T10:25:37;101415.03;;;10.17;76.05
77725;BME280;66892;53.236;6.550;2023-03-29T10:28:11;101420.31;;;10.16;75.94
77725;BME280;66892;53.236;6.550;2023-03-29T10:30:38;101425.47;;;10.05;75.92
77725;BME280;66892;53.236;6.550;2023-03-29T10:33:06;101417.75;;;10.26;75.43
77725;BME280;66892;53.236;6.550;2023-03-29T10:35:41;101412.25;;;10.05;76.11
77725;BME280;66892;53.236;6.550;2023-03-29T10:38:10;101414.00;;;10.03;76.03
77725;BME280;66892;53.236;6.550;2023-03-29T10:40:42;101419.44;;;10.18;76.14
77725;BME280;66892;53.236;6.550;2023-03-29T10:43:11;101423.06;;;10.29;75.94
77725;BME280;66892;53.236;6.550;2023-03-29T10:45:39;101427.53;;;10.41;76.00
77725;BME280;66892;53.236;6.550;2023-03-29T10:48:10;101418.81;;;10.54;75.19
77725;BME280;66892;53.236;6.550;2023-03-29T10:50:37;101418.94;;;10.75;75.20
77725;BME280;66892;53.236;6.550;2023-03-29T10:53:10;101417.22;;;10.82;75.01
77725;BME280;66892;53.236;6.550;2023-03-29T10:55:45;101414.50;;;10.73;74.45
77725;BME280;66892;53.236;6.550;2023-03-29T10:58:20;101414.50;;;10.71;74.73
77725;BME280;66892;53.236;6.550;2023-03-29T11:00:52;101406.63;;;10.82;74.67
77725;BME280;66892;53.236;6.550;2023-03-29T11:03:48;101404.06;;;11.03;75.19
77725;BME280;66892;53.236;6.550;2023-03-29T11:06:26;101402.44;;;11.43;72.88
77725;BME280;66892;53.236;6.550;2023-03-29T11:09:00;101405.97;;;11.60;72.84
77725;BME280;66892;53.236;6.550;2023-03-29T11:11:39;101417.50;;;11.76;71.38
77725;BME280;66892;53.236;6.550;2023-03-29T11:14:15;101405.16;;;12.06;70.37
77725;BME280;66892;53.236;6.550;2023-03-29T11:16:50;101404.22;;;12.36;70.62
77725;BME280;66892;53.236;6.550;2023-03-29T11:19:41;101398.56;;;13.38;66.94
77725;BME280;66892;53.236;6.550;2023-03-29T11:22:15;101386.69;;;13.89;65.20
77725;BME280;66892;53.236;6.550;2023-03-29T11:25:02;101385.47;;;14.26;64.36
77725;BME280;66892;53.236;6.550;2023-03-29T11:27:38;101381.25;;;14.04;64.59
77725;BME280;66892;53.236;6.550;2023-03-29T11:30:09;101388.41;;;13.94;65.37
77725;BME280;66892;53.236;6.550;2023-03-29T11:32:45;101392.19;;;13.61;66.34
77725;BME280;66892;53.236;6.550;2023-03-29T11:35:26;101390.41;;;13.65;65.95
77725;BME280;66892;53.236;6.550;2023-03-29T11:38:01;101393.25;;;13.39;67.28
77725;BME280;66892;53.236;6.550;2023-03-29T11:40:41;101403.81;;;13.45;66.85
77725;BME280;66892;53.236;6.550;2023-03-29T11:43:13;101400.44;;;13.25;67.91
77725;BME280;66892;53.236;6.550;2023-03-29T11:45:43;101405.84;;;12.92;68.25
77725;BME280;66892;53.236;6.550;2023-03-29T11:48:14;101411.13;;;12.95;69.28
77725;BME280;66892;53.236;6.550;2023-03-29T11:50:46;101406.84;;;12.63;69.62
77725;BME280;66892;53.236;6.550;2023-03-29T11:53:20;101405.00;;;12.84;68.35
77725;BME280;66892;53.236;6.550;2023-03-29T11:55:50;101396.16;;;12.82;69.39
77725;BME280;66892;53.236;6.550;2023-03-29T11:58:21;101400.66;;;12.58;70.33
77725;BME280;66892;53.236;6.550;2023-03-29T12:00:52;101394.44;;;12.65;70.17
77725;BME280;66892;53.236;6.550;2023-03-29T12:03:30;101397.97;;;12.74;71.04
77725;BME280;66892;53.236;6.550;2023-03-29T12:06:07;101386.31;;;13.05;70.26
77725;BME280;66892;53.236;6.550;2023-03-29T12:08:38;101378.28;;;13.28;69.00
77725;BME280;66892;53.236;6.550;2023-03-29T12:11:13;101371.00;;;13.52;66.96
77725;BME280;66892;53.236;6.550;2023-03-29T12:13:46;101372.84;;;13.44;67.69
77725;BME280;66892;53.236;6.550;2023-03-29T12:16:17;101372.78;;;13.55;68.77
77725;BME280;66892;53.236;6.550;2023-03-29T12:18:47;101363.03;;;13.55;68.17
77725;BME280;66892;53.236;6.550;2023-03-29T12:21:17;101368.09;;;13.87;67.13
77725;BME280;66892;53.236;6.550;2023-03-29T12:23:45;101365.03;;;14.31;65.55
77725;BME280;66892;53.236;6.550;2023-03-29T12:26:26;101364.94;;;14.42;64.76
77725;BME280;66892;53.236;6.550;2023-03-29T12:29:07;101357.69;;;14.56;64.39
77725;BME280;66892;53.236;6.550;2023-03-29T12:31:39;101359.66;;;14.40;64.82
77725;BME280;66892;53.236;6.550;2023-03-29T12:34:23;101361.63;;;14.17;65.88
77725;BME280;66892;53.236;6.550;2023-03-29T12:39:46;101361.78;;;14.02;66.42
77725;BME280;66892;53.236;6.550;2023-03-29T12:42:16;101351.16;;;13.97;67.28
77725;BME280;66892;53.236;6.550;2023-03-29T12:44:46;101349.44;;;13.93;66.72
77725;BME280;66892;53.236;6.550;2023-03-29T12:47:18;101357.50;;;13.83;66.55
77725;BME280;66892;53.236;6.550;2023-03-29T12:49:45;101351.31;;;13.84;67.45
77725;BME280;66892;53.236;6.550;2023-03-29T12:52:22;101337.00;;;13.94;67.46
77725;BME280;66892;53.236;6.550;2023-03-29T12:54:52;101334.34;;;13.95;66.30
77725;BME280;66892;53.236;6.550;2023-03-29T12:57:21;101344.13;;;13.90;68.24
77725;BME280;66892;53.236;6.550;2023-03-29T12:59:50;101336.13;;;13.96;67.94
77725;BME280;66892;53.236;6.550;2023-03-29T13:02:33;101341.44;;;13.96;67.10
77725;BME280;66892;53.236;6.550;2023-03-29T13:05:00;101346.75;;;13.96;67.02
77725;BME280;66892;53.236;6.550;2023-03-29T13:07:42;101353.06;;;13.82;67.18
77725;BME280;66892;53.236;6.550;2023-03-29T13:10:33;101341.72;;;13.61;68.59
77725;BME280;66892;53.236;6.550;2023-03-29T13:13:07;101340.81;;;13.67;68.63